Time;durP1;ratioP1;P1;durP2;ratioP2;P2;SDS_P1;SDS_P2;PMS_P1;PMS_P2;Temp;Humidity;BMP_temperature;BMP_pressure;BME280_temperature;BME280_humidity;BME280_pressure;Samples;Min_cycle;Max_cycle;Signal;HPM_P1;HPM_P2
2023/11/12 00:00:23;;;;;;;1.80;1.60;;;6.10;99.90;5.90;99472.00;;;;4885798;28;92970;-69
2023/11/12 00:02:49;;;;;;;1.43;1.33;;;6.10;99.90;5.90;99462.00;;;;4889337;28;93611;-69
2023/11/12 00:05:17;;;;;;;2.50;2.30;;;6.10;99.90;5.90;99473.00;;;;4891642;28;122492;-68
2023/11/12 00:07:43;;;;;;;3.83;1.90;;;7.10;99.90;5.90;99473.00;;;;4889900;28;94202;-67
2023/11/12 00:10:12;;;;;;;3.37;1.70;;;6.00;99.90;5.90;99477.00;;;;4891294;28;92682;-69
2023/11/12 00:12:41;;;;;;;1.50;1.40;;;6.10;99.90;5.90;99477.00;;;;4859837;28;92680;-70
2023/11/12 00:15:08;;;;;;;1.77;1.60;;;6.40;99.90;5.90;99470.00;;;;4891410;28;92278;-69
2023/11/12 00:17:36;;;;;;;4.20;1.77;;;6.10;99.90;5.90;99482.00;;;;4881882;28;92909;-67
2023/11/12 00:20:04;;;;;;;1.70;1.57;;;6.00;99.90;5.90;99479.00;;;;4871711;28;93105;-69
2023/11/12 00:22:30;;;;;;;2.97;1.70;;;6.00;99.90;5.90;99475.00;;;;4867260;28;94297;-69
2023/11/12 00:24:56;;;;;;;1.70;1.60;;;6.00;99.90;5.90;99482.00;;;;4852580;28;122163;-67
2023/11/12 00:27:21;;;;;;;1.57;1.47;;;6.00;99.90;5.90;99483.00;;;;4866796;28;111127;-67
2023/11/12 00:29:47;;;;;;;2.20;1.83;;;6.00;99.90;5.90;99476.00;;;;4868100;28;108371;-66
2023/11/12 00:32:13;;;;;;;3.83;2.37;;;6.10;99.90;5.90;99484.00;;;;4871265;28;122228;-69
2023/11/12 00:34:39;;;;;;;1.77;1.67;;;6.00;99.90;5.90;99474.00;;;;4871789;28;94112;-68
2023/11/12 00:37:04;;;;;;;1.53;1.30;;;6.00;99.90;5.90;99479.00;;;;4859467;28;111026;-68
2023/11/12 00:39:31;;;;;;;2.77;2.13;;;6.80;99.90;5.90;99468.00;;;;4852465;28;93591;-67
2023/11/12 00:41:59;;;;;;;2.00;1.53;;;6.10;99.90;5.90;99477.00;;;;4873839;28;93907;-69
2023/11/12 00:44:25;;;;;;;2.23;2.03;;;6.70;99.90;5.90;99476.00;;;;4869806;28;93384;-70
2023/11/12 00:46:51;;;;;;;2.83;2.13;;;6.10;99.90;6.00;99476.00;;;;4868344;28;95158;-67
2023/11/12 00:49:17;;;;;;;2.97;1.87;;;6.60;99.90;6.00;99468.00;;;;4871471;28;93126;-67
2023/11/12 00:51:44;;;;;;;1.57;1.43;;;6.10;99.90;6.00;99479.00;;;;4851694;28;94460;-67
2023/11/12 00:54:10;;;;;;;1.60;1.50;;;6.10;99.90;6.00;99480.00;;;;4868979;28;94470;-69
2023/11/12 00:56:36;;;;;;;2.17;1.57;;;6.60;99.90;5.90;99478.00;;;;4870538;28;93011;-68
2023/11/12 00:59:04;;;;;;;1.97;1.87;;;6.90;99.90;5.90;99475.00;;;;4869695;28;107607;-69
2023/11/12 01:01:31;;;;;;;2.27;1.97;;;6.30;99.90;5.90;99476.00;;;;4852523;28;93156;-68
2023/11/12 01:03:56;;;;;;;3.10;2.30;;;6.10;99.90;5.90;99475.00;;;;4865834;28;113456;-67
2023/11/12 01:06:22;;;;;;;1.50;1.40;;;6.10;99.90;5.90;99472.00;;;;4849072;28;93374;-68
2023/11/12 01:08:49;;;;;;;1.57;1.47;;;6.10;99.90;5.90;99469.00;;;;4870572;28;92594;-70
2023/11/12 01:11:15;;;;;;;2.20;1.33;;;6.10;99.90;5.90;99482.00;;;;4872717;28;94380;-69
2023/11/12 01:13:41;;;;;;;2.17;1.63;;;6.10;99.90;5.90;99477.00;;;;4870025;28;123388;-68
2023/11/12 01:16:08;;;;;;;3.50;1.90;;;6.10;99.90;5.90;99478.00;;;;4866884;28;110858;-69
2023/11/12 01:18:35;;;;;;;1.77;1.53;;;7.00;99.90;5.90;99474.00;;;;4856643;28;95236;-67
2023/11/12 01:21:04;;;;;;;3.33;1.87;;;5.70;99.90;5.90;99475.00;;;;4871253;28;93537;-67
2023/11/12 01:23:30;;;;;;;4.97;1.30;;;6.10;99.90;5.90;99475.00;;;;4868904;28;92643;-68
2023/11/12 01:25:56;;;;;;;2.27;1.47;;;6.00;99.90;5.90;99479.00;;;;4875224;28;93084;-67
2023/11/12 01:28:22;;;;;;;1.97;1.77;;;6.00;99.90;5.80;99486.00;;;;4872608;28;92572;-67
2023/11/12 01:30:48;;;;;;;2.37;1.60;;;6.00;99.90;5.80;99482.00;;;;4864861;28;122577;-70
2023/11/12 01:33:14;;;;;;;1.47;1.37;;;6.70;99.90;5.80;99481.00;;;;4866130;28;92917;-69
2023/11/12 01:35:40;;;;;;;1.10;1.00;;;6.70;99.90;5.80;99487.00;;;;4870503;28;93810;-68
2023/11/12 01:38:07;;;;;;;2.53;1.60;;;6.00;99.90;5.80;99483.00;;;;4865558;28;93420;-67
2023/11/12 01:40:39;;;;;;;3.43;1.80;;;6.00;99.90;5.80;99478.00;;;;4869790;28;93403;-69
2023/11/12 01:43:07;;;;;;;4.13;2.30;;;6.00;99.90;5.80;99480.00;;;;4855902;28;93874;-66
2023/11/12 01:45:33;;;;;;;1.63;1.53;;;6.00;99.90;5.80;99475.00;;;;4867297;28;93309;-67
2023/11/12 01:47:59;;;;;;;1.73;1.63;;;6.00;99.90;5.90;99473.00;;;;4866231;28;99324;-68
2023/11/12 01:50:28;;;;;;;1.53;1.30;;;6.00;99.90;5.90;99471.00;;;;4866573;28;123115;-67
2023/11/12 01:52:54;;;;;;;1.50;1.30;;;6.00;99.90;5.90;99474.00;;;;4872237;28;94644;-67
2023/11/12 01:55:22;;;;;;;1.97;1.60;;;6.60;99.90;5.90;99472.00;;;;4859067;28;111627;-70
2023/11/12 01:57:50;;;;;;;2.23;1.80;;;6.10;99.90;5.90;99464.00;;;;4850800;28;95995;-72
2023/11/12 02:00:16;;;;;;;2.17;2.00;;;6.00;99.90;5.90;99461.00;;;;4851059;28;94116;-70
2023/11/12 02:02:44;;;;;;;2.97;1.67;;;6.10;99.90;5.90;99465.00;;;;4840634;28;95005;-70
2023/11/12 02:05:12;;;;;;;2.57;1.70;;;6.10;99.90;5.90;99472.00;;;;4872150;28;92772;-69
2023/11/12 02:07:42;;;;;;;1.67;1.57;;;5.70;99.90;5.90;99462.00;;;;4862816;28;93036;-69
2023/11/12 02:10:11;;;;;;;2.30;1.50;;;6.10;99.90;5.90;99469.00;;;;4869565;28;93926;-68
2023/11/12 02:12:39;;;;;;;1.90;1.43;;;6.10;99.90;6.00;99473.00;;;;4872218;28;93193;-67
2023/11/12 02:15:06;;;;;;;1.90;1.47;;;6.10;99.90;6.00;99469.00;;;;4869910;28;95170;-67
2023/11/12 02:17:32;;;;;;;1.60;1.50;;;6.10;99.90;6.00;99478.00;;;;4872960;28;92403;-67
2023/11/12 02:20:07;;;;;;;2.20;1.33;;;6.60;99.90;6.00;99472.00;;;;4887579;28;123350;-69
2023/11/12 02:22:34;;;;;;;2.10;1.80;;;6.20;99.90;6.00;99472.00;;;;4891626;28;93649;-68
2023/11/12 02:25:01;;;;;;;2.03;1.80;;;6.10;99.90;6.10;99471.00;;;;4889541;28;93772;-68
2023/11/12 02:27:27;;;;;;;2.70;2.17;;;6.20;99.90;6.10;99467.00;;;;4892443;28;92746;-68
2023/11/12 02:29:53;;;;;;;2.03;1.90;;;6.30;99.90;6.10;99474.00;;;;4893714;28;93043;-69
2023/11/12 02:32:19;;;;;;;1.97;1.70;;;6.30;99.90;6.10;99474.00;;;;4894556;28;94211;-67
2023/11/12 02:34:45;;;;;;;3.33;1.73;;;6.20;99.90;6.10;99469.00;;;;4892986;28;94440;-69
2023/11/12 02:37:12;;;;;;;1.63;1.40;;;6.80;99.90;6.10;99478.00;;;;4891765;28;92910;-69
2023/11/12 02:39:41;;;;;;;2.80;2.17;;;6.30;99.90;6.10;99479.00;;;;4892621;28;93517;-67
2023/11/12 02:42:09;;;;;;;1.67;1.57;;;6.80;99.90;6.10;99474.00;;;;4894666;28;92772;-69
2023/11/12 02:44:36;;;;;;;2.30;2.10;;;6.20;99.90;6.10;99472.00;;;;4898037;28;101552;-69
2023/11/12 02:47:04;;;;;;;2.30;2.07;;;6.30;99.90;6.10;99473.00;;;;4892588;28;93336;-69
2023/11/12 02:49:43;;;;;;;2.93;1.97;;;6.30;99.90;6.10;99478.00;;;;4870761;28;94580;-70
2023/11/12 02:52:09;;;;;;;1.73;1.43;;;6.30;99.90;6.10;99468.00;;;;4873280;28;92999;-69
2023/11/12 02:54:35;;;;;;;2.07;1.83;;;6.60;99.90;6.10;99468.00;;;;4890437;28;109629;-69
2023/11/12 02:57:02;;;;;;;2.33;1.73;;;6.30;99.90;6.00;99477.00;;;;4880961;28;92999;-69
2023/11/12 02:59:29;;;;;;;1.50;1.33;;;6.30;99.90;6.00;99479.00;;;;4890582;28;95182;-68
2023/11/12 03:01:55;;;;;;;2.17;1.97;;;6.20;99.90;6.00;99483.00;;;;4891003;28;93511;-68
2023/11/12 03:04:21;;;;;;;2.60;1.70;;;6.60;99.90;6.00;99484.00;;;;4892523;28;92834;-68
2023/11/12 03:06:51;;;;;;;2.47;1.93;;;6.30;99.90;6.00;99483.00;;;;4863477;28;91985;-68
2023/11/12 03:09:16;;;;;;;4.13;1.90;;;6.10;99.90;6.00;99484.00;;;;4890932;28;93642;-67
2023/11/12 03:11:43;;;;;;;2.80;1.80;;;6.20;99.90;6.00;99481.00;;;;4890081;28;93963;-67
2023/11/12 03:14:09;;;;;;;2.20;1.40;;;6.70;99.90;6.00;99485.00;;;;4868029;28;93964;-67
2023/11/12 03:16:35;;;;;;;1.43;1.33;;;6.20;99.90;6.00;99481.00;;;;4891002;28;108749;-69
2023/11/12 03:19:00;;;;;;;2.40;2.20;;;6.40;99.90;6.00;99481.00;;;;4888164;28;93312;-69
2023/11/12 03:21:29;;;;;;;3.27;2.20;;;6.20;99.90;6.00;99482.00;;;;4876634;28;120914;-66
2023/11/12 03:23:55;;;;;;;3.60;1.67;;;6.20;99.90;6.00;99483.00;;;;4891024;28;111769;-66
2023/11/12 03:26:24;;;;;;;1.70;1.50;;;6.20;99.90;6.00;99485.00;;;;4885796;28;108959;-66
2023/11/12 03:28:49;;;;;;;2.70;1.90;;;6.10;99.90;6.00;99492.00;;;;4893765;28;123372;-66
2023/11/12 03:31:15;;;;;;;2.60;1.90;;;6.20;99.90;6.00;99485.00;;;;4891801;28;110217;-66
2023/11/12 03:33:41;;;;;;;2.17;1.90;;;6.20;99.90;6.00;99487.00;;;;4889042;28;92568;-67
2023/11/12 03:36:07;;;;;;;1.47;1.37;;;6.20;99.90;6.00;99492.00;;;;4891432;28;92937;-67
2023/11/12 03:38:32;;;;;;;2.30;1.97;;;6.20;99.90;6.00;99478.00;;;;4869337;28;117195;-67
2023/11/12 03:40:58;;;;;;;1.80;1.27;;;6.20;99.90;6.00;99484.00;;;;4889276;28;94255;-68
2023/11/12 03:43:24;;;;;;;2.00;1.50;;;6.20;99.90;6.00;99479.00;;;;4870913;28;93095;-68
2023/11/12 03:45:49;;;;;;;3.50;2.23;;;6.60;99.90;6.00;99482.00;;;;4888109;28;108660;-68
2023/11/12 03:48:15;;;;;;;3.10;1.83;;;6.20;99.90;5.90;99488.00;;;;4890771;28;123180;-68
2023/11/12 03:50:41;;;;;;;4.07;2.10;;;6.70;99.90;5.90;99488.00;;;;4895058;28;93347;-68
2023/11/12 03:53:07;;;;;;;1.50;1.37;;;6.10;99.90;5.90;99483.00;;;;4889755;28;93234;-67
2023/11/12 03:55:33;;;;;;;1.63;1.47;;;6.10;99.90;5.90;99477.00;;;;4890273;28;91813;-67
2023/11/12 03:57:59;;;;;;;1.90;1.70;;;6.10;99.90;5.90;99477.00;;;;4880134;28;123559;-67
2023/11/12 04:00:25;;;;;;;2.27;1.77;;;6.00;99.90;5.90;99484.00;;;;4885440;28;121054;-67
2023/11/12 04:02:51;;;;;;;1.73;1.50;;;6.10;99.90;5.90;99483.00;;;;4889294;28;110272;-68
2023/11/12 04:05:16;;;;;;;1.47;1.37;;;6.00;99.90;5.90;99484.00;;;;4890258;28;93029;-67
2023/11/12 04:07:42;;;;;;;3.03;2.13;;;6.10;99.90;5.80;99481.00;;;;4890854;28;122626;-67
2023/11/12 04:10:11;;;;;;;1.37;1.27;;;6.00;99.90;5.80;99473.00;;;;4889098;28;95216;-68
2023/11/12 04:12:36;;;;;;;3.60;2.47;;;6.00;99.90;5.80;99479.00;;;;4892295;28;92884;-66
2023/11/12 04:15:13;;;;;;;2.03;1.50;;;5.80;99.90;5.90;99467.00;;;;4889930;28;108357;-68
2023/11/12 04:17:39;;;;;;;1.90;1.70;;;6.00;99.90;5.80;99475.00;;;;4887788;28;94050;-67
2023/11/12 04:20:08;;;;;;;2.57;2.17;;;6.00;99.90;5.90;99476.00;;;;4874841;28;121870;-68
2023/11/12 04:22:34;;;;;;;1.67;1.50;;;6.00;99.90;5.80;99473.00;;;;4872415;28;93116;-67
2023/11/12 04:24:59;;;;;;;3.07;2.13;;;6.00;99.90;5.80;99475.00;;;;4890334;28;93054;-66
2023/11/12 04:27:25;;;;;;;2.93;1.73;;;6.50;99.90;5.90;99485.00;;;;4888133;28;125079;-68
2023/11/12 04:29:51;;;;;;;1.73;1.50;;;6.00;99.90;5.90;99482.00;;;;4891407;28;114141;-66
2023/11/12 04:32:17;;;;;;;3.73;1.93;;;6.00;99.90;5.90;99481.00;;;;4890915;28;108434;-69
2023/11/12 04:34:43;;;;;;;1.90;1.80;;;6.00;99.90;5.90;99489.00;;;;4890164;28;92892;-68
2023/11/12 04:37:09;;;;;;;2.33;1.57;;;6.00;99.90;5.90;99487.00;;;;4886095;28;92984;-68
2023/11/12 04:39:35;;;;;;;3.40;1.80;;;6.30;99.90;6.00;99490.00;;;;4890508;28;92867;-67
2023/11/12 04:42:01;;;;;;;1.43;1.20;;;6.10;99.90;6.00;99495.00;;;;4889413;28;92465;-69
2023/11/12 04:44:27;;;;;;;1.40;1.30;;;6.10;99.90;6.00;99499.00;;;;4891243;28;91969;-68
2023/11/12 04:46:53;;;;;;;1.63;1.13;;;6.10;99.90;6.00;99493.00;;;;4889801;28;92982;-69
2023/11/12 04:49:19;;;;;;;2.10;1.87;;;6.60;99.90;6.00;99494.00;;;;4884531;28;95069;-67
2023/11/12 04:51:45;;;;;;;1.13;1.13;;;6.20;99.90;6.10;99493.00;;;;4891526;28;93906;-66
2023/11/12 04:54:11;;;;;;;1.60;1.40;;;6.20;99.90;6.10;99489.00;;;;4871032;28;108698;-70
2023/11/12 04:56:45;;;;;;;1.73;1.50;;;6.20;99.90;6.10;99488.00;;;;4887473;28;123657;-69
2023/11/12 04:59:11;;;;;;;2.20;2.00;;;6.20;99.90;6.10;99487.00;;;;4885947;28;93301;-66
2023/11/12 05:01:36;;;;;;;3.10;2.47;;;6.30;99.90;6.10;99489.00;;;;4889466;28;92875;-68
2023/11/12 05:04:02;;;;;;;1.87;1.67;;;6.30;99.90;6.10;99484.00;;;;4890360;28;107872;-68
2023/11/12 05:06:29;;;;;;;1.70;1.47;;;6.30;99.90;6.10;99494.00;;;;4892083;28;94620;-69
2023/11/12 05:08:55;;;;;;;1.63;1.53;;;6.50;99.90;6.10;99511.00;;;;4869987;28;93277;-69
2023/11/12 05:11:21;;;;;;;1.37;1.13;;;6.30;99.90;6.10;99500.00;;;;4887059;28;92639;-69
2023/11/12 05:13:47;;;;;;;2.37;1.40;;;6.30;99.90;6.10;99495.00;;;;4888513;28;108617;-68
2023/11/12 05:16:13;;;;;;;1.97;1.77;;;6.30;99.90;6.10;99504.00;;;;4888094;28;94516;-67
2023/11/12 05:18:39;;;;;;;2.00;1.43;;;6.30;99.90;6.10;99497.00;;;;4890185;28;123144;-67
2023/11/12 05:21:06;;;;;;;1.40;1.30;;;6.20;99.90;6.10;99501.00;;;;4889586;28;92877;-67
2023/11/12 05:23:34;;;;;;;2.27;1.47;;;6.30;99.90;6.10;99510.00;;;;4890769;28;92908;-68
2023/11/12 05:26:00;;;;;;;2.23;1.90;;;6.30;99.90;6.10;99503.00;;;;4887486;28;108277;-68
2023/11/12 05:28:27;;;;;;;2.27;1.47;;;6.40;99.90;6.20;99515.00;;;;4870188;28;93149;-66
2023/11/12 05:30:52;;;;;;;2.10;1.63;;;6.30;99.90;6.20;99518.00;;;;4891672;28;92703;-68
2023/11/12 05:33:19;;;;;;;1.60;1.50;;;6.40;99.90;6.20;99519.00;;;;4891082;28;92164;-69
2023/11/12 05:35:48;;;;;;;2.57;1.87;;;6.40;99.90;6.20;99514.00;;;;4892222;28;103607;-66
2023/11/12 05:38:14;;;;;;;2.37;2.17;;;6.40;99.90;6.20;99515.00;;;;4870280;28;92887;-68
2023/11/12 05:40:41;;;;;;;3.53;1.73;;;6.90;99.90;6.20;99515.00;;;;4885509;28;94135;-66
2023/11/12 05:43:07;;;;;;;4.27;1.83;;;6.40;99.90;6.30;99524.00;;;;4887846;28;93147;-67
2023/11/12 05:45:32;;;;;;;3.23;1.83;;;6.40;99.90;6.30;99524.00;;;;4889346;28;98553;-66
2023/11/12 05:47:58;;;;;;;3.13;2.53;;;6.40;99.90;6.30;99531.00;;;;4887969;28;121946;-66
2023/11/12 05:50:24;;;;;;;1.63;1.50;;;6.70;99.90;6.30;99520.00;;;;4888483;28;93748;-67
2023/11/12 05:52:50;;;;;;;1.83;1.23;;;6.50;99.90;6.30;99533.00;;;;4886856;28;108027;-67
2023/11/12 05:55:17;;;;;;;2.37;1.63;;;6.40;99.90;6.30;99530.00;;;;4889345;28;116555;-68
2023/11/12 05:57:43;;;;;;;2.17;1.53;;;7.10;99.90;6.30;99533.00;;;;4887689;28;122822;-67
2023/11/12 06:00:12;;;;;;;8.77;2.20;;;6.40;99.90;6.30;99533.00;;;;4888293;28;110025;-69
2023/11/12 06:02:38;;;;;;;3.43;2.10;;;6.40;99.90;6.30;99537.00;;;;4871280;28;92142;-67
2023/11/12 06:05:05;;;;;;;3.70;2.00;;;6.50;99.90;6.30;99539.00;;;;4878616;28;94163;-68
2023/11/12 06:07:34;;;;;;;1.43;1.33;;;7.00;99.90;6.30;99549.00;;;;4894034;28;94609;-69
2023/11/12 06:10:01;;;;;;;2.60;1.67;;;6.40;99.90;6.30;99546.00;;;;4870822;28;108470;-67
2023/11/12 06:12:26;;;;;;;3.00;1.50;;;6.40;99.90;6.30;99549.00;;;;4873711;28;92766;-66
2023/11/12 06:14:53;;;;;;;3.93;2.20;;;6.40;99.90;6.30;99539.00;;;;4891483;28;92949;-68
2023/11/12 06:17:18;;;;;;;2.20;1.57;;;6.50;99.90;6.30;99549.00;;;;4874411;28;93166;-67
2023/11/12 06:19:44;;;;;;;2.53;1.93;;;6.70;99.90;6.30;99557.00;;;;4868001;28;110630;-67
2023/11/12 06:22:10;;;;;;;1.83;1.67;;;6.50;99.90;6.30;99562.00;;;;4870455;28;92176;-69
2023/11/12 06:24:36;;;;;;;2.03;1.53;;;6.40;99.90;6.20;99557.00;;;;4866759;28;93602;-67
2023/11/12 06:27:01;;;;;;;1.90;1.73;;;5.80;99.90;6.20;99552.00;;;;4851523;28;93019;-66
2023/11/12 06:29:27;;;;;;;4.30;1.70;;;6.90;99.90;6.20;99566.00;;;;4871939;28;93942;-70
2023/11/12 06:31:53;;;;;;;1.63;1.30;;;6.30;99.90;6.20;99551.00;;;;4872769;28;95773;-68
2023/11/12 06:34:18;;;;;;;2.63;1.83;;;6.30;99.90;6.20;99556.00;;;;4866967;28;123138;-67
2023/11/12 06:36:44;;;;;;;1.33;1.23;;;6.40;99.90;6.20;99563.00;;;;4842827;28;122151;-67
2023/11/12 06:39:16;;;;;;;2.30;1.97;;;6.40;99.90;6.20;99565.00;;;;4863251;28;94235;-68
2023/11/12 06:41:42;;;;;;;3.33;2.17;;;6.40;99.90;6.30;99572.00;;;;4876788;28;93049;-70
2023/11/12 06:44:08;;;;;;;2.37;2.17;;;7.00;99.90;6.30;99575.00;;;;4868804;28;120711;-67
2023/11/12 06:46:33;;;;;;;3.43;1.83;;;6.40;99.90;6.30;99568.00;;;;4858299;28;92758;-68
2023/11/12 06:48:59;;;;;;;3.63;1.63;;;6.40;99.90;6.30;99583.00;;;;4853373;28;109848;-67
2023/11/12 06:51:25;;;;;;;1.90;1.33;;;6.50;99.90;6.40;99581.00;;;;4872358;28;108699;-67
2023/11/12 06:53:51;;;;;;;1.70;1.47;;;6.70;99.90;6.40;99580.00;;;;4854308;28;93686;-67
2023/11/12 06:56:17;;;;;;;2.07;1.40;;;6.50;99.90;6.40;99581.00;;;;4869292;28;121747;-67
2023/11/12 06:58:43;;;;;;;1.97;1.40;;;6.50;99.90;6.40;99592.00;;;;4871064;28;100972;-67
2023/11/12 07:01:09;;;;;;;1.33;1.23;;;6.50;99.90;6.40;99596.00;;;;4856068;28;92851;-66
2023/11/12 07:03:35;;;;;;;2.60;1.67;;;7.10;99.90;6.40;99582.00;;;;4868191;28;93585;-67
2023/11/12 07:06:01;;;;;;;2.17;1.73;;;6.60;99.90;6.40;99591.00;;;;4836338;28;123861;-67
2023/11/12 07:08:27;;;;;;;4.50;1.90;;;6.60;99.90;6.40;99589.00;;;;4870837;28;109234;-68
2023/11/12 07:10:53;;;;;;;2.60;1.63;;;6.60;99.90;6.50;99598.00;;;;4872076;28;92515;-68
2023/11/12 07:13:19;;;;;;;1.67;1.30;;;6.60;99.90;6.50;99602.00;;;;4852751;28;92892;-68
2023/11/12 07:15:45;;;;;;;2.40;1.77;;;6.60;99.90;6.50;99603.00;;;;4872333;28;103248;-68
2023/11/12 07:18:11;;;;;;;3.37;1.80;;;6.40;99.90;6.50;99610.00;;;;4856265;28;93607;-69
2023/11/12 07:20:37;;;;;;;2.13;1.30;;;6.60;99.90;6.50;99609.00;;;;4872485;28;92794;-68
2023/11/12 07:23:03;;;;;;;2.10;1.90;;;6.60;99.90;6.50;99605.00;;;;4869094;28;99267;-68
2023/11/12 07:25:38;;;;;;;1.60;1.30;;;6.70;99.90;6.50;99613.00;;;;4873360;28;92904;-68
2023/11/12 07:28:04;;;;;;;2.40;1.33;;;7.10;99.90;6.60;99607.00;;;;4870776;28;99553;-71
2023/11/12 07:30:30;;;;;;;3.37;2.00;;;7.10;99.90;6.50;99604.00;;;;4875820;28;110294;-70
2023/11/12 07:32:55;;;;;;;2.47;1.70;;;6.80;99.90;6.50;99605.00;;;;4861165;28;94695;-69
2023/11/12 07:35:21;;;;;;;2.13;1.93;;;6.60;99.90;6.50;99609.00;;;;4853824;28;120903;-68
2023/11/12 07:37:47;;;;;;;1.13;0.80;;;6.60;99.90;6.40;99603.00;;;;4864346;28;93063;-66
2023/11/12 07:40:15;;;;;;;3.27;2.13;;;6.60;99.90;6.40;99600.00;;;;4868704;28;92838;-66
2023/11/12 07:42:42;;;;;;;1.93;1.37;;;6.60;99.90;6.40;99612.00;;;;4866710;28;93541;-66
2023/11/12 07:45:09;;;;;;;3.07;1.90;;;6.60;99.90;6.40;99605.00;;;;4867614;28;94625;-66
2023/11/12 07:47:38;;;;;;;4.40;2.23;;;6.60;99.90;6.40;99604.00;;;;4868454;28;92979;-66
2023/11/12 07:50:08;;;;;;;2.47;2.10;;;6.70;99.90;6.40;99607.00;;;;4869451;28;92724;-66
2023/11/12 07:52:35;;;;;;;2.93;1.90;;;6.50;99.90;6.50;99609.00;;;;4849244;28;93196;-66
2023/11/12 07:55:01;;;;;;;7.70;2.30;;;6.60;99.90;6.50;99605.00;;;;4866693;28;94004;-66
2023/11/12 07:57:27;;;;;;;3.60;2.07;;;6.70;99.90;6.50;99599.00;;;;4868129;28;93852;-68
2023/11/12 07:59:53;;;;;;;2.03;1.83;;;6.60;99.90;6.50;99608.00;;;;4864131;28;99292;-69
2023/11/12 08:02:20;;;;;;;2.93;2.00;;;7.20;99.90;6.50;99610.00;;;;4866005;28;93323;-69
2023/11/12 08:04:47;;;;;;;2.23;2.03;;;6.70;99.90;6.50;99608.00;;;;4849915;28;93174;-69
2023/11/12 08:07:13;;;;;;;2.43;1.93;;;6.70;99.90;6.50;99620.00;;;;4864290;28;94028;-68
2023/11/12 08:09:43;;;;;;;2.13;1.60;;;6.70;99.90;6.50;99620.00;;;;4854819;28;92986;-67
2023/11/12 08:12:09;;;;;;;2.77;2.27;;;7.30;99.90;6.50;99616.00;;;;4865605;28;93100;-67
2023/11/12 08:14:38;;;;;;;3.33;2.07;;;6.60;99.90;6.50;99624.00;;;;4829257;28;124498;-68
2023/11/12 08:17:04;;;;;;;3.60;2.30;;;6.80;99.90;6.50;99621.00;;;;4865654;28;92952;-67
2023/11/12 08:19:29;;;;;;;3.03;2.03;;;6.60;99.90;6.50;99628.00;;;;4885444;28;108702;-67
2023/11/12 08:21:55;;;;;;;4.43;1.93;;;7.00;99.90;6.50;99620.00;;;;4866845;28;104298;-67
2023/11/12 08:24:21;;;;;;;2.30;2.10;;;6.60;99.90;6.50;99625.00;;;;4888036;28;114864;-69
2023/11/12 08:26:47;;;;;;;3.20;2.30;;;6.70;99.90;6.50;99620.00;;;;4888961;28;93070;-67
2023/11/12 08:29:13;;;;;;;2.03;1.83;;;6.70;99.90;6.50;99630.00;;;;4869913;28;92833;-69
2023/11/12 08:31:39;;;;;;;2.90;2.03;;;6.60;99.90;6.50;99631.00;;;;4867687;28;113102;-69
2023/11/12 08:34:05;;;;;;;6.60;2.67;;;6.60;99.90;6.60;99643.00;;;;4879052;28;94882;-67
2023/11/12 08:36:34;;;;;;;2.57;2.17;;;6.70;99.90;6.60;99644.00;;;;4888276;28;92864;-70
2023/11/12 08:39:03;;;;;;;3.27;2.93;;;6.70;99.90;6.60;99639.00;;;;4888042;28;92969;-67
2023/11/12 08:41:29;;;;;;;2.17;1.90;;;6.80;99.90;6.70;99633.00;;;;4889420;28;94248;-69
2023/11/12 08:43:55;;;;;;;2.73;2.17;;;6.80;99.90;6.70;99630.00;;;;4886749;28;122461;-68
2023/11/12 08:46:23;;;;;;;3.70;2.80;;;6.90;99.90;6.80;99639.00;;;;4886222;28;93373;-67
2023/11/12 08:48:48;;;;;;;3.97;2.33;;;6.90;99.90;6.90;99647.00;;;;4889577;28;92495;-69
2023/11/12 08:51:14;;;;;;;3.27;2.03;;;7.00;99.90;6.90;99639.00;;;;4886283;28;113995;-68
2023/11/12 08:53:40;;;;;;;2.90;2.00;;;7.40;99.90;7.00;99638.00;;;;4885119;28;110316;-69
2023/11/12 08:56:07;;;;;;;3.97;2.40;;;7.10;99.90;7.10;99643.00;;;;4887259;28;94278;-68
2023/11/12 08:58:34;;;;;;;3.00;1.77;;;7.10;99.90;7.10;99646.00;;;;4887816;28;93310;-70
2023/11/12 09:01:02;;;;;;;2.47;2.03;;;7.20;99.90;7.20;99649.00;;;;4880768;28;99001;-67
2023/11/12 09:03:28;;;;;;;1.87;1.77;;;7.30;99.90;7.30;99650.00;;;;4872255;28;93063;-68
2023/11/12 09:05:54;;;;;;;4.80;2.20;;;7.40;99.90;7.30;99649.00;;;;4017249;28;10000632;-67
2023/11/12 09:08:21;;;;;;;2.60;2.00;;;7.40;99.90;7.40;99649.00;;;;4012335;28;10000784;-69
2023/11/12 09:10:47;;;;;;;3.70;2.00;;;7.50;99.90;7.40;99650.00;;;;4013011;28;10001008;-67
2023/11/12 09:13:13;;;;;;;2.83;1.87;;;7.50;99.90;7.50;99649.00;;;;4888323;28;92641;-68
2023/11/12 09:15:39;;;;;;;2.73;2.23;;;7.60;99.90;7.60;99655.00;;;;4016102;28;10000925;-66
2023/11/12 09:18:05;;;;;;;2.53;1.50;;;7.60;99.90;7.60;99662.00;;;;4865693;28;93153;-68
2023/11/12 09:20:31;;;;;;;3.47;2.13;;;7.80;99.90;7.70;99661.00;;;;4882162;28;95339;-66
2023/11/12 09:22:56;;;;;;;2.27;1.67;;;7.80;99.90;7.70;99670.00;;;;4889500;28;94267;-67
2023/11/12 09:25:22;;;;;;;5.03;2.47;;;7.80;99.90;7.80;99665.00;;;;4883823;28;106235;-67
2023/11/12 09:27:48;;;;;;;2.03;1.80;;;7.90;99.90;7.80;99666.00;;;;4885993;28;109815;-69
2023/11/12 09:30:14;;;;;;;2.93;2.10;;;7.90;99.90;7.80;99665.00;;;;4886678;28;92965;-67
2023/11/12 09:32:41;;;;;;;2.23;1.40;;;7.90;99.90;7.90;99665.00;;;;4884214;28;92697;-66
2023/11/12 09:35:08;;;;;;;2.53;1.77;;;8.00;99.90;8.10;99664.00;;;;4884404;28;93585;-68
2023/11/12 09:37:34;;;;;;;2.63;1.70;;;8.10;99.90;8.20;99666.00;;;;4881605;28;92409;-67
2023/11/12 09:40:00;;;;;;;1.43;1.33;;;8.20;99.90;8.30;99664.00;;;;4884949;28;94075;-66
2023/11/12 09:42:28;;;;;;;4.27;1.97;;;8.30;99.90;8.30;99667.00;;;;4884905;28;111929;-68
2023/11/12 09:44:55;;;;;;;1.67;1.57;;;8.40;99.90;8.40;99668.00;;;;4885586;28;93904;-67
2023/11/12 09:47:42;;;;;;;3.33;2.00;;;8.50;99.90;8.50;99664.00;;;;4885746;28;93339;-67
2023/11/12 09:50:12;;;;;;;2.23;1.80;;;8.60;99.90;8.60;99668.00;;;;4885931;28;92677;-67
2023/11/12 09:52:38;;;;;;;1.70;1.50;;;8.70;99.90;8.70;99658.00;;;;4885649;28;93164;-66
2023/11/12 09:55:06;;;;;;;2.07;1.47;;;8.70;99.90;8.70;99657.00;;;;4883153;28;94433;-66
2023/11/12 09:57:39;;;;;;;1.70;1.60;;;8.70;99.90;8.70;99662.00;;;;4734356;28;10000622;-65
2023/11/12 10:00:07;;;;;;;1.73;1.33;;;8.80;99.90;8.70;99664.00;;;;4373864;28;10000732;-66
2023/11/12 10:02:34;;;;;;;3.43;2.10;;;8.80;99.90;8.80;99661.00;;;;4883092;28;92278;-66
2023/11/12 10:05:04;;;;;;;2.73;1.93;;;8.90;99.90;8.80;99669.00;;;;4016717;28;10000991;-67
2023/11/12 10:07:30;;;;;;;2.90;1.87;;;8.80;99.90;8.80;99668.00;;;;4887987;28;93984;-66
2023/11/12 10:09:55;;;;;;;4.10;1.90;;;8.80;99.90;8.70;99668.00;;;;4881197;28;122403;-68
2023/11/12 10:12:21;;;;;;;1.70;1.60;;;8.80;99.90;8.70;99665.00;;;;4013348;28;10001286;-68
2023/11/12 10:15:04;;;;;;;2.20;1.83;;;8.80;99.90;8.70;99667.00;;;;4018533;28;10001064;-66
2023/11/12 10:17:29;;;;;;;3.47;2.00;;;8.80;99.90;8.70;99667.00;;;;4881569;28;93082;-67
2023/11/12 10:19:57;;;;;;;3.90;2.10;;;8.80;99.90;8.70;99667.00;;;;4016338;28;10000890;-68
2023/11/12 10:22:39;;;;;;;2.53;2.00;;;8.80;99.90;8.60;99669.00;;;;4889833;28;93566;-67
2023/11/12 10:25:06;;;;;;;2.83;2.03;;;7.90;99.90;8.60;99670.00;;;;4891764;28;92658;-66
2023/11/12 10:27:31;;;;;;;4.10;2.27;;;8.70;99.90;8.60;99671.00;;;;4891519;28;92122;-67
2023/11/12 10:30:19;;;;;;;2.47;2.23;;;8.70;99.90;8.60;99673.00;;;;4887943;28;92927;-67
2023/11/12 10:32:45;;;;;;;2.93;1.63;;;8.70;99.90;8.70;99673.00;;;;4863453;28;94515;-66
2023/11/12 10:35:24;;;;;;;3.63;2.27;;;8.70;99.90;8.70;99677.00;;;;4890518;28;93913;-66
2023/11/12 10:38:02;;;;;;;2.80;1.77;;;8.80;99.90;8.80;99681.00;;;;4890535;28;92653;-66
2023/11/12 10:40:28;;;;;;;1.70;1.60;;;8.90;99.90;8.90;99678.00;;;;4007296;28;10000566;-65
2023/11/12 10:43:00;;;;;;;3.33;2.30;;;9.30;99.90;8.90;99687.00;;;;4861448;28;92945;-65
2023/11/12 10:45:30;;;;;;;3.27;2.10;;;9.00;99.90;9.00;99695.00;;;;4880398;28;93265;-66
2023/11/12 10:48:09;;;;;;;4.07;2.10;;;9.00;99.90;9.00;99686.00;;;;4866549;28;94215;-67
2023/11/12 10:50:39;;;;;;;4.00;1.37;;;9.10;99.90;9.10;99682.00;;;;4887437;28;93011;-66
2023/11/12 10:53:05;;;;;;;1.80;1.20;;;9.10;99.90;9.10;99684.00;;;;4872398;28;92263;-67
2023/11/12 10:55:32;;;;;;;2.70;2.00;;;9.10;99.90;9.10;99690.00;;;;4872782;28;122639;-65
2023/11/12 10:58:03;;;;;;;3.10;2.00;;;9.20;99.90;9.10;99692.00;;;;4886130;28;92885;-65
2023/11/12 11:00:30;;;;;;;3.10;1.90;;;8.90;99.90;9.20;99694.00;;;;4890228;28;93987;-65
2023/11/12 11:02:56;;;;;;;4.27;1.70;;;9.20;99.90;9.20;99697.00;;;;4889449;28;93010;-65
2023/11/12 11:05:22;;;;;;;6.63;1.50;;;9.20;99.90;9.20;99696.00;;;;4888826;28;93946;-65